createdAt,value
2018-08-18T00:00:26.405Z,5.20
2018-08-18T00:02:55.771Z,5.20
2018-08-18T00:05:24.798Z,4.50
2018-08-18T00:07:53.821Z,4.37
2018-08-18T00:10:23.370Z,5.03
2018-08-18T00:12:52.617Z,4.60
2018-08-18T00:15:21.874Z,4.70
2018-08-18T00:17:54.187Z,4.80
2018-08-18T00:20:27.780Z,4.90
2018-08-18T00:22:59.838Z,4.70
2018-08-18T00:25:29.669Z,4.70
2018-08-18T00:28:04.862Z,4.00
2018-08-18T00:30:33.877Z,4.77
2018-08-18T00:33:02.940Z,4.60
2018-08-18T00:35:32.319Z,4.93
2018-08-18T00:38:02.780Z,5.03
2018-08-18T00:40:32.437Z,4.87
2018-08-18T00:43:02.112Z,5.60
2018-08-18T00:45:30.999Z,4.67
2018-08-18T00:48:00.425Z,4.70
2018-08-18T00:50:42.998Z,4.80
2018-08-18T00:53:14.220Z,4.50
2018-08-18T00:55:43.334Z,4.83
2018-08-18T00:58:21.927Z,4.33
2018-08-18T01:00:56.173Z,4.57
2018-08-18T01:03:25.696Z,4.20
2018-08-18T01:05:57.044Z,5.10
2018-08-18T01:08:26.441Z,4.40
2018-08-18T01:10:55.630Z,4.90
2018-08-18T01:13:24.912Z,4.13
2018-08-18T01:15:54.213Z,4.37
2018-08-18T01:18:23.266Z,4.10
2018-08-18T01:20:52.284Z,4.40
2018-08-18T01:23:21.463Z,3.90
2018-08-18T01:25:50.629Z,4.80
2018-08-18T01:28:19.817Z,4.90
2018-08-18T01:31:02.578Z,4.37
2018-08-18T01:33:32.866Z,4.40
2018-08-18T01:36:02.057Z,3.90
2018-08-18T01:38:32.443Z,4.37
2018-08-18T01:41:13.127Z,4.10
2018-08-18T01:43:44.099Z,4.50
2018-08-18T01:46:16.853Z,4.37
2018-08-18T01:48:47.816Z,4.50
2018-08-18T01:51:20.503Z,4.53
2018-08-18T01:53:49.934Z,4.37
2018-08-18T01:56:20.400Z,3.90
2018-08-18T01:58:49.845Z,4.33
2018-08-18T02:01:19.028Z,4.23
2018-08-18T02:03:48.211Z,4.40
2018-08-18T02:06:17.466Z,4.20
2018-08-18T02:08:58.281Z,4.23
2018-08-18T02:11:27.598Z,3.90
2018-08-18T02:13:57.215Z,4.27
2018-08-18T02:16:27.840Z,4.03
2018-08-18T02:18:56.978Z,3.57
2018-08-18T02:21:33.247Z,3.97
2018-08-18T02:24:03.396Z,4.23
2018-08-18T02:26:33.669Z,4.90
2018-08-18T02:29:03.044Z,4.43
2018-08-18T02:31:32.848Z,4.00
2018-08-18T02:34:01.887Z,4.57
2018-08-18T02:36:31.176Z,3.77
2018-08-18T02:39:01.561Z,4.20
2018-08-18T02:41:32.738Z,4.30
2018-08-18T02:44:02.111Z,4.13
2018-08-18T02:46:33.454Z,4.57
2018-08-18T02:49:03.606Z,4.00
2018-08-18T02:51:33.100Z,4.00
2018-08-18T02:54:02.481Z,4.03
2018-08-18T02:56:36.595Z,3.97
2018-08-18T02:59:08.216Z,4.00
2018-08-18T03:01:40.063Z,3.57
2018-08-18T03:04:11.075Z,4.10
2018-08-18T03:06:40.470Z,4.10
2018-08-18T03:09:10.934Z,4.20
2018-08-18T03:11:42.186Z,4.00
2018-08-18T03:14:11.960Z,3.97
2018-08-18T03:16:42.573Z,4.13
2018-08-18T03:19:15.387Z,4.37
2018-08-18T03:21:44.604Z,3.90
2018-08-18T03:24:17.232Z,3.87
2018-08-18T03:26:50.981Z,3.83
2018-08-18T03:29:21.066Z,3.90
2018-08-18T03:31:50.363Z,3.70
2018-08-18T03:34:19.755Z,3.20
2018-08-18T03:36:51.406Z,3.70
2018-08-18T03:39:27.115Z,4.00
2018-08-18T03:42:02.887Z,4.17
2018-08-18T03:44:32.085Z,4.07
2018-08-18T03:47:01.496Z,3.80
2018-08-18T03:49:30.669Z,4.10
2018-08-18T03:51:59.915Z,3.60
2018-08-18T03:54:28.911Z,4.77
2018-08-18T03:56:58.034Z,3.80
2018-08-18T03:59:27.051Z,3.60
2018-08-18T04:01:57.524Z,4.00
2018-08-18T04:04:30.598Z,3.67
2018-08-18T04:07:00.438Z,4.10
2018-08-18T04:16:31.581Z,4.00
2018-08-18T04:19:03.120Z,4.37
2018-08-18T04:21:34.165Z,4.60
2018-08-18T04:24:03.899Z,4.17
2018-08-18T04:26:39.593Z,4.53
2018-08-18T04:29:08.528Z,4.00
2018-08-18T04:31:37.738Z,5.07
2018-08-18T04:34:07.938Z,5.27
2018-08-18T04:36:36.991Z,4.53
2018-08-18T04:39:10.405Z,4.70
2018-08-18T04:41:39.711Z,4.47
2018-08-18T04:44:09.066Z,4.57
2018-08-18T04:46:38.505Z,4.53
2018-08-18T04:49:07.448Z,4.90
2018-08-18T04:51:36.679Z,5.23
2018-08-18T04:54:06.167Z,5.10
2018-08-18T04:56:35.238Z,5.27
2018-08-18T04:59:04.389Z,5.03
2018-08-18T05:01:33.658Z,4.73
2018-08-18T05:04:06.031Z,5.73
2018-08-18T05:06:35.876Z,4.43
2018-08-18T05:09:06.981Z,4.97
2018-08-18T05:11:36.038Z,6.47
2018-08-18T05:14:05.123Z,7.07
2018-08-18T05:16:34.318Z,6.23
2018-08-18T05:19:03.367Z,7.03
2018-08-18T05:21:33.205Z,5.77
2018-08-18T05:24:19.146Z,5.57
2018-08-18T05:26:48.359Z,5.70
2018-08-18T05:29:17.520Z,5.70
2018-08-18T05:31:46.389Z,6.90
2018-08-18T05:34:15.439Z,6.47
2018-08-18T05:36:45.054Z,5.80
2018-08-18T05:39:14.649Z,5.37
2018-08-18T05:41:43.727Z,7.27
2018-08-18T05:44:13.074Z,6.20
2018-08-18T05:46:42.214Z,6.43
2018-08-18T05:49:15.109Z,5.57
2018-08-18T05:51:46.211Z,6.17
2018-08-18T05:54:17.860Z,5.50
2018-08-18T05:56:47.228Z,6.17
2018-08-18T05:59:16.230Z,5.93
2018-08-18T06:01:45.406Z,6.10
2018-08-18T06:04:15.675Z,5.60
2018-08-18T06:06:45.769Z,5.37
2018-08-18T06:09:15.972Z,6.23
2018-08-18T06:11:45.265Z,6.10
2018-08-18T06:14:15.695Z,6.67
2018-08-18T06:16:45.206Z,6.00
2018-08-18T06:19:14.324Z,5.73
2018-08-18T06:21:43.430Z,5.90
2018-08-18T06:24:12.446Z,6.00
2018-08-18T06:26:41.851Z,6.40
2018-08-18T06:29:10.902Z,5.70
2018-08-18T06:32:00.424Z,6.37
2018-08-18T06:34:33.185Z,5.70
2018-08-18T06:37:02.389Z,5.80
2018-08-18T06:39:46.602Z,5.97
2018-08-18T06:42:26.490Z,6.40
2018-08-18T06:44:56.493Z,5.73
2018-08-18T06:47:32.023Z,5.47
2018-08-18T06:50:01.379Z,5.93
2018-08-18T06:52:31.399Z,5.57
2018-08-18T06:55:00.954Z,4.80
2018-08-18T06:57:40.478Z,5.47
2018-08-18T07:00:12.759Z,6.10
2018-08-18T07:02:42.211Z,6.43
2018-08-18T07:05:13.398Z,6.20
2018-08-18T07:07:42.741Z,6.37
2018-08-18T07:10:32.444Z,6.17
2018-08-18T07:13:04.347Z,5.57
2018-08-18T07:15:35.949Z,6.60
2018-08-18T07:18:06.402Z,7.13
2018-08-18T07:20:35.455Z,6.30
2018-08-18T07:23:05.104Z,6.17
2018-08-18T07:25:34.664Z,5.70
2018-08-18T07:28:08.810Z,6.00
2018-08-18T07:30:37.787Z,5.37
2018-08-18T07:33:06.840Z,6.60
2018-08-18T07:35:35.905Z,5.60
2018-08-18T07:38:05.777Z,5.20
2018-08-18T07:40:46.020Z,5.40
2018-08-18T07:43:18.575Z,6.00
2018-08-18T07:45:48.288Z,6.60
2018-08-18T07:48:17.406Z,5.67
2018-08-18T07:50:46.634Z,5.77
2018-08-18T07:53:16.086Z,6.20
2018-08-18T07:55:45.320Z,5.73
2018-08-18T07:58:16.205Z,6.03
2018-08-18T08:00:45.662Z,4.63
2018-08-18T08:03:15.805Z,5.13
2018-08-18T08:05:44.878Z,5.10
2018-08-18T08:08:14.225Z,5.40
2018-08-18T08:10:43.277Z,5.37
2018-08-18T08:13:13.789Z,4.83
2018-08-18T08:15:43.077Z,4.37
2018-08-18T08:18:13.585Z,4.03
2018-08-18T08:20:43.484Z,4.10
2018-08-18T08:23:13.125Z,4.00
2018-08-18T08:25:42.628Z,3.90
2018-08-18T08:28:11.694Z,5.07
2018-08-18T08:30:40.687Z,3.83
2018-08-18T08:33:09.684Z,4.37
2018-08-18T08:35:38.915Z,4.10
2018-08-18T08:38:08.060Z,3.87
2018-08-18T08:40:37.434Z,3.90
2018-08-18T08:43:06.855Z,4.00
2018-08-18T08:45:36.427Z,4.40
2018-08-18T08:48:06.364Z,4.00
2018-08-18T08:50:35.906Z,3.50
2018-08-18T08:53:04.989Z,3.90
2018-08-18T08:55:35.361Z,4.27
2018-08-18T08:58:04.266Z,4.10
2018-08-18T09:00:33.473Z,3.60
2018-08-18T09:03:03.127Z,4.07
2018-08-18T09:05:32.605Z,3.43
2018-08-18T09:08:01.633Z,4.27
2018-08-18T09:10:30.705Z,4.23
2018-08-18T09:12:59.842Z,3.90
2018-08-18T09:15:29.292Z,4.00
2018-08-18T09:17:58.353Z,3.50
2018-08-18T09:20:28.483Z,3.70
2018-08-18T09:23:00.245Z,4.23
2018-08-18T09:25:30.523Z,3.80
2018-08-18T09:28:01.019Z,3.87
2018-08-18T09:30:31.521Z,4.50
2018-08-18T09:33:05.539Z,4.17
2018-08-18T09:36:06.043Z,3.83
2018-08-18T09:38:35.411Z,4.27
2018-08-18T09:41:06.536Z,4.00
2018-08-18T09:43:36.948Z,4.70
2018-08-18T09:46:05.933Z,4.30
2018-08-18T09:48:34.985Z,3.67
2018-08-18T09:51:04.054Z,3.73
2018-08-18T09:53:33.084Z,3.10
2018-08-18T09:56:02.082Z,4.53
2018-08-18T09:58:31.205Z,4.03
2018-08-18T10:01:00.324Z,3.73
2018-08-18T10:03:29.546Z,3.50
2018-08-18T10:05:58.552Z,3.90
2018-08-18T10:08:27.650Z,3.77
2018-08-18T10:10:56.614Z,3.50
2018-08-18T10:13:25.768Z,3.80
2018-08-18T10:15:54.723Z,3.60
2018-08-18T10:18:34.630Z,4.07
2018-08-18T10:21:04.588Z,4.27
2018-08-18T10:23:33.778Z,3.90
2018-08-18T10:26:02.960Z,3.60
2018-08-18T10:28:32.281Z,4.30
2018-08-18T10:31:01.504Z,4.30
2018-08-18T10:33:30.780Z,3.37
2018-08-18T10:35:59.892Z,4.00
2018-08-18T10:38:29.313Z,3.13
2018-08-18T10:40:58.577Z,3.60
2018-08-18T10:43:27.601Z,3.00
2018-08-18T10:45:56.974Z,3.07
2018-08-18T10:48:26.022Z,2.87
2018-08-18T10:51:21.254Z,2.80
2018-08-18T10:53:51.105Z,2.87
2018-08-18T10:56:20.812Z,2.50
2018-08-18T10:59:07.878Z,2.20
2018-08-18T11:01:37.241Z,2.67
2018-08-18T11:04:06.441Z,2.60
2018-08-18T11:06:35.411Z,2.40
2018-08-18T11:09:05.774Z,2.30
2018-08-18T11:11:34.847Z,2.27
2018-08-18T11:14:04.033Z,1.80
2018-08-18T11:16:33.023Z,2.20
2018-08-18T11:19:02.395Z,2.20
2018-08-18T11:21:34.702Z,2.07
2018-08-18T11:24:07.334Z,2.43
2018-08-18T11:26:37.874Z,2.47
2018-08-18T11:29:15.218Z,2.30
2018-08-18T11:31:44.490Z,2.03
2018-08-18T11:34:13.815Z,2.47
2018-08-18T11:36:57.824Z,2.20
2018-08-18T11:39:26.846Z,2.40
2018-08-18T11:41:57.443Z,2.93
2018-08-18T11:44:26.471Z,2.33
2018-08-18T11:46:56.073Z,2.90
2018-08-18T11:49:25.377Z,2.90
2018-08-18T11:51:55.701Z,2.60
2018-08-18T11:54:25.255Z,2.73
2018-08-18T11:56:55.416Z,2.70
2018-08-18T11:59:24.421Z,2.73
2018-08-18T12:01:55.247Z,2.80
2018-08-18T12:04:24.835Z,2.97
2018-08-18T12:06:59.883Z,2.90
2018-08-18T12:09:29.163Z,3.00
2018-08-18T12:11:58.380Z,2.77
2018-08-18T12:14:27.415Z,2.60
2018-08-18T12:16:56.408Z,2.67
2018-08-18T12:19:25.768Z,3.33
2018-08-18T12:21:55.455Z,2.70
2018-08-18T12:24:24.492Z,2.90
2018-08-18T12:27:04.463Z,3.00
2018-08-18T12:29:33.545Z,2.60
2018-08-18T12:32:02.687Z,3.30
2018-08-18T12:34:31.876Z,3.50
2018-08-18T12:37:01.008Z,3.00
2018-08-18T12:39:30.253Z,2.60
2018-08-18T12:41:59.143Z,2.80
2018-08-18T12:44:32.556Z,2.43
2018-08-18T12:47:03.832Z,2.73
2018-08-18T12:49:33.135Z,2.27
2018-08-18T12:52:02.496Z,2.50
2018-08-18T12:54:31.580Z,2.57
2018-08-18T12:57:00.562Z,2.63
2018-08-18T12:59:29.571Z,2.70
2018-08-18T13:01:58.599Z,2.10
2018-08-18T13:04:27.592Z,2.67
2018-08-18T13:06:56.661Z,2.40
2018-08-18T13:09:26.756Z,2.23
2018-08-18T13:11:56.995Z,2.57
2018-08-18T13:14:30.576Z,3.00
2018-08-18T13:17:00.156Z,2.50
2018-08-18T13:19:31.369Z,2.70
2018-08-18T13:22:00.608Z,2.20
2018-08-18T13:24:31.268Z,2.33
2018-08-18T13:27:01.548Z,2.70
2018-08-18T13:29:31.759Z,2.50
2018-08-18T13:32:00.914Z,2.43
2018-08-18T13:34:29.962Z,2.50
2018-08-18T13:36:59.024Z,2.13
2018-08-18T13:39:28.143Z,2.10
2018-08-18T13:41:57.147Z,2.37
2018-08-18T13:44:31.344Z,2.13
2018-08-18T13:47:01.324Z,2.10
2018-08-18T13:49:30.412Z,2.20
2018-08-18T13:51:59.547Z,2.30
2018-08-18T13:54:28.524Z,2.23
2018-08-18T13:56:57.762Z,2.23
2018-08-18T13:59:39.581Z,2.10
2018-08-18T14:02:09.446Z,2.47
2018-08-18T14:04:40.855Z,2.20
2018-08-18T14:07:10.473Z,1.87
2018-08-18T14:09:43.223Z,2.20
2018-08-18T14:12:14.022Z,1.77
2018-08-18T14:14:42.889Z,2.07
2018-08-18T14:17:12.600Z,2.50
2018-08-18T14:19:42.012Z,2.17
2018-08-18T14:22:11.863Z,2.50
2018-08-18T14:24:41.793Z,2.17
2018-08-18T14:27:14.890Z,2.60
2018-08-18T14:29:44.010Z,2.10
2018-08-18T14:32:19.027Z,1.97
2018-08-18T14:35:07.067Z,1.83
2018-08-18T14:37:38.900Z,2.47
2018-08-18T14:40:10.244Z,2.50
2018-08-18T14:42:40.848Z,2.10
2018-08-18T14:45:12.939Z,2.10
2018-08-18T14:47:42.408Z,2.13
2018-08-18T14:50:25.489Z,2.33
2018-08-18T14:52:54.636Z,2.30
2018-08-18T14:55:23.999Z,2.47
2018-08-18T14:58:03.723Z,2.03
2018-08-18T15:00:33.074Z,2.13
2018-08-18T15:03:02.070Z,2.17
2018-08-18T15:05:31.135Z,1.90
2018-08-18T15:08:00.635Z,2.30
2018-08-18T15:10:40.083Z,2.10
2018-08-18T15:13:09.869Z,2.03
2018-08-18T15:15:38.844Z,2.03
2018-08-18T15:18:14.685Z,2.63
2018-08-18T15:20:44.035Z,2.60
2018-08-18T15:23:13.932Z,2.40
2018-08-18T15:25:43.865Z,2.43
2018-08-18T15:28:17.359Z,2.17
2018-08-18T15:30:50.493Z,2.90
2018-08-18T15:33:21.274Z,2.33
2018-08-18T15:35:50.371Z,2.37
2018-08-18T15:38:51.153Z,2.60
2018-08-18T15:41:21.032Z,2.53
2018-08-18T15:43:50.575Z,2.23
2018-08-18T15:46:21.392Z,2.77
2018-08-18T15:48:50.336Z,2.33
2018-08-18T15:51:19.187Z,2.10
2018-08-18T15:53:52.382Z,2.33
2018-08-18T15:56:22.157Z,2.60
2018-08-18T15:58:51.972Z,2.47
2018-08-18T16:01:25.831Z,2.40
2018-08-18T16:03:56.211Z,2.40
2018-08-18T16:06:25.239Z,2.47
2018-08-18T16:08:54.571Z,2.17
2018-08-18T16:11:24.160Z,2.40
2018-08-18T16:13:53.571Z,2.40
2018-08-18T16:16:23.126Z,2.40
2018-08-18T16:19:02.865Z,2.70
2018-08-18T16:21:33.260Z,2.40
2018-08-18T16:24:02.973Z,2.20
2018-08-18T16:26:32.199Z,2.23
2018-08-18T16:29:01.388Z,1.97
2018-08-18T16:31:30.337Z,2.40
2018-08-18T16:33:59.920Z,2.23
2018-08-18T16:36:34.487Z,2.80
2018-08-18T16:39:03.587Z,2.27
2018-08-18T16:41:32.846Z,2.80
2018-08-18T16:44:01.936Z,2.43
2018-08-18T16:46:31.960Z,3.70
2018-08-18T16:49:01.463Z,2.40
2018-08-18T16:51:33.822Z,2.60
2018-08-18T16:54:34.383Z,2.50
2018-08-18T16:57:03.432Z,2.63
2018-08-18T16:59:35.372Z,2.63
2018-08-18T17:02:04.797Z,2.30
2018-08-18T17:04:34.921Z,2.53
2018-08-18T17:07:08.563Z,2.47
2018-08-18T17:09:41.691Z,2.50
2018-08-18T17:12:20.968Z,2.60
2018-08-18T17:14:50.063Z,2.67
2018-08-18T17:17:19.462Z,2.73
2018-08-18T17:19:48.427Z,2.77
2018-08-18T17:22:17.643Z,2.40
2018-08-18T17:24:46.595Z,2.53
2018-08-18T17:27:16.295Z,2.70
2018-08-18T17:29:47.197Z,2.80
2018-08-18T17:32:16.340Z,2.70
2018-08-18T17:34:45.350Z,2.10
2018-08-18T17:37:14.855Z,2.27
2018-08-18T17:39:44.282Z,2.70
2018-08-18T17:42:13.411Z,3.03
2018-08-18T17:44:42.885Z,2.83
2018-08-18T17:47:12.502Z,2.67
2018-08-18T17:50:01.954Z,2.80
2018-08-18T17:52:31.920Z,3.30
2018-08-18T17:55:12.815Z,2.80
2018-08-18T17:57:41.810Z,3.73
2018-08-18T18:00:17.911Z,3.10
2018-08-18T18:02:53.081Z,3.53
2018-08-18T18:05:23.359Z,3.40
2018-08-18T18:07:53.962Z,3.40
2018-08-18T18:10:25.250Z,3.27
2018-08-18T18:12:54.645Z,3.60
2018-08-18T18:15:28.924Z,3.10
2018-08-18T18:17:58.468Z,3.30
2018-08-18T18:20:30.174Z,3.23
2018-08-18T18:22:59.526Z,3.77
2018-08-18T18:25:28.517Z,3.90
2018-08-18T18:27:59.729Z,4.33
2018-08-18T18:30:29.354Z,3.60
2018-08-18T18:32:58.910Z,4.13
2018-08-18T18:35:28.186Z,3.50
2018-08-18T18:37:59.300Z,3.30
2018-08-18T18:40:28.632Z,3.87
2018-08-18T18:42:57.605Z,3.50
2018-08-18T18:45:26.838Z,2.60
2018-08-18T18:47:56.100Z,3.27
2018-08-18T18:50:26.046Z,2.80
2018-08-18T18:52:55.240Z,3.00
2018-08-18T18:55:24.341Z,3.23
2018-08-18T18:58:07.090Z,4.27
2018-08-18T19:00:37.514Z,4.07
2018-08-18T19:03:08.055Z,4.43
2018-08-18T19:05:37.182Z,4.37
2018-08-18T19:08:12.331Z,4.80
2018-08-18T19:10:41.491Z,4.90
2018-08-18T19:13:11.011Z,5.43
2018-08-18T19:15:40.827Z,5.23
2018-08-18T19:18:10.709Z,5.60
2018-08-18T19:20:40.036Z,5.90
2018-08-18T19:23:14.157Z,5.47
2018-08-18T19:25:44.334Z,6.27
2018-08-18T19:28:16.540Z,5.80
2018-08-18T19:30:45.585Z,5.40
2018-08-18T19:33:15.408Z,5.73
2018-08-18T19:35:45.900Z,5.60
2018-08-18T19:38:15.454Z,6.10
2018-08-18T19:40:46.257Z,5.60
2018-08-18T19:43:17.741Z,5.37
2018-08-18T19:45:47.707Z,4.97
2018-08-18T19:48:21.163Z,4.77
2018-08-18T19:50:57.159Z,4.50
2018-08-18T19:53:32.872Z,4.57
2018-08-18T19:56:02.579Z,4.17
2018-08-18T19:58:32.000Z,3.67
2018-08-18T20:01:01.223Z,4.30
2018-08-18T20:03:30.550Z,4.20
2018-08-18T20:05:59.995Z,4.03
2018-08-18T20:08:29.330Z,4.60
2018-08-18T20:10:59.660Z,4.30
2018-08-18T20:13:29.919Z,4.13
2018-08-18T20:16:00.383Z,4.10
2018-08-18T20:18:30.110Z,4.50
2018-08-18T20:21:00.315Z,4.13
2018-08-18T20:23:29.665Z,4.50
2018-08-18T20:25:58.824Z,4.37
2018-08-18T20:28:27.993Z,4.37
2018-08-18T20:30:57.116Z,3.97
2018-08-18T20:33:26.237Z,4.20
2018-08-18T20:35:55.274Z,4.50
2018-08-18T20:38:25.114Z,4.27
2018-08-18T20:40:54.199Z,4.40
2018-08-18T20:43:23.131Z,3.83
2018-08-18T20:45:52.114Z,3.80
2018-08-18T20:48:22.928Z,4.17
2018-08-18T20:50:52.450Z,4.20
2018-08-18T20:53:21.623Z,3.60
2018-08-18T20:56:00.023Z,3.93
2018-08-18T20:58:29.838Z,4.03
2018-08-18T21:00:59.291Z,3.67
2018-08-18T21:03:46.369Z,4.00
2018-08-18T21:06:16.704Z,4.20
2018-08-18T21:08:45.733Z,4.10
2018-08-18T21:11:15.637Z,4.17
2018-08-18T21:13:47.867Z,3.97
2018-08-18T21:16:17.777Z,3.97
2018-08-18T21:18:46.915Z,4.43
2018-08-18T21:21:34.793Z,3.87
2018-08-18T21:24:04.235Z,4.20
2018-08-18T21:26:33.560Z,3.87
2018-08-18T21:29:02.879Z,3.90
2018-08-18T21:31:36.834Z,4.47
2018-08-18T21:34:07.265Z,4.50
2018-08-18T21:36:36.995Z,4.00
2018-08-18T21:39:09.027Z,4.00
2018-08-18T21:41:40.631Z,4.27
2018-08-18T21:44:11.530Z,4.70
2018-08-18T21:46:41.008Z,4.80
2018-08-18T21:49:10.803Z,4.20
2018-08-18T21:51:40.011Z,4.90
2018-08-18T21:54:09.066Z,5.67
2018-08-18T21:56:40.314Z,5.37
2018-08-18T21:59:11.150Z,5.13
2018-08-18T22:01:40.517Z,5.10
2018-08-18T22:04:10.106Z,4.30
2018-08-18T22:06:39.477Z,5.13
2018-08-18T22:09:22.784Z,4.30
2018-08-18T22:11:51.962Z,4.90
2018-08-18T22:14:20.993Z,4.40
2018-08-18T22:16:57.938Z,5.23
2018-08-18T22:19:27.904Z,5.33
2018-08-18T22:21:56.994Z,5.20
2018-08-18T22:24:26.093Z,4.90
2018-08-18T22:26:55.322Z,5.10
2018-08-18T22:29:25.651Z,5.00
2018-08-18T22:31:55.023Z,6.00
2018-08-18T22:34:24.047Z,5.60
2018-08-18T22:37:00.891Z,5.30
2018-08-18T22:39:29.874Z,5.10
2018-08-18T22:41:58.951Z,5.50
2018-08-18T22:44:27.975Z,5.30
2018-08-18T22:46:57.166Z,4.80
2018-08-18T22:49:26.709Z,5.70
2018-08-18T22:51:55.815Z,5.47
2018-08-18T22:54:25.203Z,5.90
2018-08-18T22:56:59.558Z,5.10
2018-08-18T22:59:28.838Z,5.57
2018-08-18T23:01:58.146Z,5.53
2018-08-18T23:04:33.998Z,5.93
2018-08-18T23:07:04.199Z,5.60
2018-08-18T23:09:33.330Z,5.83
2018-08-18T23:12:06.302Z,4.80
2018-08-18T23:14:39.406Z,5.10
2018-08-18T23:17:10.757Z,6.00
2018-08-18T23:19:39.819Z,5.67
2018-08-18T23:22:18.439Z,4.73
2018-08-18T23:24:47.741Z,4.53
2018-08-18T23:27:16.858Z,4.50
2018-08-18T23:29:46.006Z,5.30
2018-08-18T23:32:22.100Z,4.50
2018-08-18T23:34:53.578Z,4.17
2018-08-18T23:37:22.731Z,4.63
2018-08-18T23:39:55.381Z,4.67
2018-08-18T23:42:25.776Z,4.93
2018-08-18T23:44:54.838Z,4.40
2018-08-18T23:47:24.242Z,4.27
2018-08-18T23:49:53.406Z,4.03
2018-08-18T23:52:23.332Z,4.37
2018-08-18T23:54:52.310Z,4.03
2018-08-18T23:57:21.844Z,4.33
2018-08-18T23:59:51.288Z,4.57
